sensor_id;sensor_type;location;lat;lon;timestamp;pressure;altitude;pressure_sealevel;temperature;humidity
53300;BME280;39187;48.476;8.310;2023-04-01T00:02:00;90019.72;;;3.98;100.00
53300;BME280;39187;48.476;8.310;2023-04-01T00:04:25;90019.81;;;3.91;100.00
53300;BME280;39187;48.476;8.310;2023-04-01T00:06:51;90017.34;;;4.04;100.00
53300;BME280;39187;48.476;8.310;2023-04-01T00:09:17;90012.28;;;3.93;100.00
53300;BME280;39187;48.476;8.310;2023-04-01T00:11:43;90020.09;;;3.97;100.00
53300;BME280;39187;48.476;8.310;2023-04-01T00:14:11;89997.75;;;4.09;100.00
53300;BME280;39187;48.476;8.310;2023-04-01T00:16:37;90004.38;;;3.93;100.00
53300;BME280;39187;48.476;8.310;2023-04-01T00:19:03;90004.94;;;4.04;100.00
53300;BME280;39187;48.476;8.310;2023-04-01T00:21:29;89987.56;;;3.87;100.00
53300;BME280;39187;48.476;8.310;2023-04-01T00:23:55;89982.22;;;3.91;100.00
53300;BME280;39187;48.476;8.310;2023-04-01T00:26:21;89992.31;;;3.96;100.00
53300;BME280;39187;48.476;8.310;2023-04-01T00:28:47;89986.31;;;3.95;100.00
53300;BME280;39187;48.476;8.310;2023-04-01T00:31:14;89988.59;;;3.93;100.00
53300;BME280;39187;48.476;8.310;2023-04-01T00:33:40;89990.03;;;3.75;100.00
53300;BME280;39187;48.476;8.310;2023-04-01T00:36:18;89987.91;;;3.89;100.00
53300;BME280;39187;48.476;8.310;2023-04-01T00:38:44;89985.91;;;3.74;100.00
53300;BME280;39187;48.476;8.310;2023-04-01T00:41:12;89983.84;;;3.85;100.00
53300;BME280;39187;48.476;8.310;2023-04-01T00:43:41;89980.47;;;3.84;100.00
53300;BME280;39187;48.476;8.310;2023-04-01T00:46:07;89986.41;;;3.65;100.00
53300;BME280;39187;48.476;8.310;2023-04-01T00:48:34;89976.94;;;3.71;100.00
53300;BME280;39187;48.476;8.310;2023-04-01T00:51:05;89973.25;;;3.88;100.00
53300;BME280;39187;48.476;8.310;2023-04-01T00:53:32;89976.13;;;3.74;100.00
53300;BME280;39187;48.476;8.310;2023-04-01T00:56:12;89999.69;;;3.81;100.00
53300;BME280;39187;48.476;8.310;2023-04-01T00:58:42;89995.75;;;3.70;100.00
53300;BME280;39187;48.476;8.310;2023-04-01T01:01:09;89988.53;;;3.50;100.00
53300;BME280;39187;48.476;8.310;2023-04-01T01:03:36;89990.13;;;3.44;100.00
53300;BME280;39187;48.476;8.310;2023-04-01T01:06:26;89994.88;;;3.53;100.00
53300;BME280;39187;48.476;8.310;2023-04-01T01:09:22;89994.69;;;3.40;100.00
53300;BME280;39187;48.476;8.310;2023-04-01T01:12:05;89999.06;;;3.50;100.00
53300;BME280;39187;48.476;8.310;2023-04-01T01:18:13;89997.00;;;3.35;100.00
53300;BME280;39187;48.476;8.310;2023-04-01T01:26:58;89997.84;;;3.55;100.00
53300;BME280;39187;48.476;8.310;2023-04-01T01:37:35;89992.03;;;3.40;100.00
53300;BME280;39187;48.476;8.310;2023-04-01T01:40:05;89981.41;;;3.24;100.00
53300;BME280;39187;48.476;8.310;2023-04-01T01:42:34;89990.31;;;3.30;100.00
53300;BME280;39187;48.476;8.310;2023-04-01T01:45:01;89993.81;;;3.23;100.00
53300;BME280;39187;48.476;8.310;2023-04-01T01:47:28;89992.78;;;3.41;100.00
53300;BME280;39187;48.476;8.310;2023-04-01T01:49:55;89992.75;;;3.44;100.00
53300;BME280;39187;48.476;8.310;2023-04-01T01:52:22;89989.84;;;3.39;100.00
53300;BME280;39187;48.476;8.310;2023-04-01T01:54:50;89998.81;;;3.41;100.00
53300;BME280;39187;48.476;8.310;2023-04-01T01:57:17;90002.44;;;3.51;100.00
53300;BME280;39187;48.476;8.310;2023-04-01T01:59:47;89995.44;;;3.41;100.00
53300;BME280;39187;48.476;8.310;2023-04-01T02:02:14;89999.38;;;3.52;100.00
53300;BME280;39187;48.476;8.310;2023-04-01T02:04:43;89998.81;;;3.41;100.00
53300;BME280;39187;48.476;8.310;2023-04-01T02:07:15;90003.22;;;3.48;100.00
53300;BME280;39187;48.476;8.310;2023-04-01T02:09:42;90005.00;;;3.54;100.00
53300;BME280;39187;48.476;8.310;2023-04-01T02:12:10;89993.25;;;3.59;100.00
53300;BME280;39187;48.476;8.310;2023-04-01T02:14:49;89994.84;;;3.30;100.00
53300;BME280;39187;48.476;8.310;2023-04-01T02:17:20;90003.22;;;3.21;100.00
53300;BME280;39187;48.476;8.310;2023-04-01T02:22:35;89997.63;;;3.19;100.00
53300;BME280;39187;48.476;8.310;2023-04-01T02:25:08;89997.38;;;3.10;100.00
53300;BME280;39187;48.476;8.310;2023-04-01T02:27:35;89981.38;;;3.01;100.00
53300;BME280;39187;48.476;8.310;2023-04-01T02:30:00;89995.94;;;3.05;100.00
53300;BME280;39187;48.476;8.310;2023-04-01T02:32:27;89997.38;;;3.10;100.00
53300;BME280;39187;48.476;8.310;2023-04-01T02:34:54;89992.84;;;3.10;100.00
53300;BME280;39187;48.476;8.310;2023-04-01T02:37:19;89997.38;;;3.10;100.00
53300;BME280;39187;48.476;8.310;2023-04-01T02:39:45;89977.88;;;3.07;100.00
53300;BME280;39187;48.476;8.310;2023-04-01T02:42:11;89990.50;;;3.19;100.00
53300;BME280;39187;48.476;8.310;2023-04-01T02:44:36;90000.88;;;3.27;100.00
53300;BME280;39187;48.476;8.310;2023-04-01T02:47:02;89986.94;;;3.03;100.00
53300;BME280;39187;48.476;8.310;2023-04-01T02:49:28;89983.88;;;3.08;100.00
53300;BME280;39187;48.476;8.310;2023-04-01T02:51:53;89984.22;;;3.10;100.00
53300;BME280;39187;48.476;8.310;2023-04-01T02:54:19;89990.53;;;3.16;100.00
53300;BME280;39187;48.476;8.310;2023-04-01T02:56:45;89981.88;;;3.15;100.00
53300;BME280;39187;48.476;8.310;2023-04-01T02:59:11;89978.72;;;3.28;100.00
53300;BME280;39187;48.476;8.310;2023-04-01T03:01:36;89986.81;;;3.13;100.00
53300;BME280;39187;48.476;8.310;2023-04-01T03:04:02;89977.63;;;3.25;100.00
53300;BME280;39187;48.476;8.310;2023-04-01T03:06:28;89966.41;;;3.21;100.00
53300;BME280;39187;48.476;8.310;2023-04-01T03:08:54;89967.97;;;3.18;100.00
53300;BME280;39187;48.476;8.310;2023-04-01T03:11:19;89974.09;;;3.35;100.00
53300;BME280;39187;48.476;8.310;2023-04-01T03:13:46;89976.94;;;3.21;100.00
53300;BME280;39187;48.476;8.310;2023-04-01T03:16:13;89980.56;;;3.54;100.00
53300;BME280;39187;48.476;8.310;2023-04-01T03:18:39;89971.63;;;3.25;100.00
53300;BME280;39187;48.476;8.310;2023-04-01T03:21:19;89971.38;;;3.42;100.00
53300;BME280;39187;48.476;8.310;2023-04-01T03:23:45;89971.13;;;3.33;100.00
53300;BME280;39187;48.476;8.310;2023-04-01T03:26:11;89969.31;;;3.53;100.00
53300;BME280;39187;48.476;8.310;2023-04-01T03:28:37;89977.56;;;3.55;100.00
53300;BME280;39187;48.476;8.310;2023-04-01T03:31:02;89975.28;;;3.31;100.00
53300;BME280;39187;48.476;8.310;2023-04-01T03:33:28;89970.22;;;3.43;100.00
53300;BME280;39187;48.476;8.310;2023-04-01T03:35:53;89973.81;;;3.30;100.00
53300;BME280;39187;48.476;8.310;2023-04-01T03:38:19;89974.38;;;3.41;100.00
53300;BME280;39187;48.476;8.310;2023-04-01T03:40:45;89952.56;;;3.44;100.00
53300;BME280;39187;48.476;8.310;2023-04-01T03:43:11;89964.03;;;3.53;100.00
53300;BME280;39187;48.476;8.310;2023-04-01T03:45:44;89954.72;;;3.26;100.00
53300;BME280;39187;48.476;8.310;2023-04-01T03:48:10;89957.81;;;3.44;100.00
53300;BME280;39187;48.476;8.310;2023-04-01T03:50:35;89957.81;;;3.44;100.00
53300;BME280;39187;48.476;8.310;2023-04-01T03:53:01;89962.50;;;3.56;100.00
53300;BME280;39187;48.476;8.310;2023-04-01T03:55:26;89954.06;;;3.18;100.00
53300;BME280;39187;48.476;8.310;2023-04-01T03:57:52;89956.19;;;3.27;100.00
53300;BME280;39187;48.476;8.310;2023-04-01T04:00:17;89945.41;;;3.44;100.00
53300;BME280;39187;48.476;8.310;2023-04-01T04:02:43;89960.16;;;3.38;100.00
53300;BME280;39187;48.476;8.310;2023-04-01T04:05:08;89957.56;;;3.35;100.00
53300;BME280;39187;48.476;8.310;2023-04-01T04:07:35;89957.69;;;3.28;100.00
53300;BME280;39187;48.476;8.310;2023-04-01T04:10:00;89939.44;;;3.17;100.00
53300;BME280;39187;48.476;8.310;2023-04-01T04:12:26;89945.34;;;3.25;100.00
53300;BME280;39187;48.476;8.310;2023-04-01T04:14:51;89948.44;;;3.19;100.00
53300;BME280;39187;48.476;8.310;2023-04-01T04:17:17;89950.25;;;3.22;100.00
53300;BME280;39187;48.476;8.310;2023-04-01T04:19:42;89951.25;;;3.32;100.00
53300;BME280;39187;48.476;8.310;2023-04-01T04:22:08;89956.34;;;3.43;100.00
53300;BME280;39187;48.476;8.310;2023-04-01T04:24:35;89952.47;;;3.24;100.00
53300;BME280;39187;48.476;8.310;2023-04-01T04:27:01;89960.84;;;3.15;100.00
53300;BME280;39187;48.476;8.310;2023-04-01T04:29:26;89962.72;;;3.18;100.00
53300;BME280;39187;48.476;8.310;2023-04-01T04:31:52;89964.22;;;3.43;100.00
53300;BME280;39187;48.476;8.310;2023-04-01T04:34:17;89966.84;;;3.43;100.00
53300;BME280;39187;48.476;8.310;2023-04-01T04:36:44;89972.75;;;3.50;100.00
53300;BME280;39187;48.476;8.310;2023-04-01T04:39:10;89964.44;;;3.29;100.00
53300;BME280;39187;48.476;8.310;2023-04-01T04:41:37;89956.25;;;3.23;100.00
53300;BME280;39187;48.476;8.310;2023-04-01T04:44:03;89956.31;;;3.19;100.00
53300;BME280;39187;48.476;8.310;2023-04-01T04:46:30;89969.50;;;3.16;100.00
53300;BME280;39187;48.476;8.310;2023-04-01T04:48:55;89960.53;;;3.13;100.00
53300;BME280;39187;48.476;8.310;2023-04-01T04:51:21;89967.72;;;3.09;100.00
53300;BME280;39187;48.476;8.310;2023-04-01T04:53:48;89961.56;;;3.19;100.00
53300;BME280;39187;48.476;8.310;2023-04-01T04:56:18;89968.72;;;3.19;100.00
53300;BME280;39187;48.476;8.310;2023-04-01T04:58:44;89949.03;;;3.27;100.00
53300;BME280;39187;48.476;8.310;2023-04-01T05:01:12;89947.25;;;3.20;100.00
53300;BME280;39187;48.476;8.310;2023-04-01T05:03:38;89957.84;;;3.40;100.00
53300;BME280;39187;48.476;8.310;2023-04-01T05:06:05;89947.50;;;3.06;100.00
53300;BME280;39187;48.476;8.310;2023-04-01T05:08:31;89954.31;;;3.27;100.00
53300;BME280;39187;48.476;8.310;2023-04-01T05:10:58;89953.22;;;3.25;100.00
53300;BME280;39187;48.476;8.310;2023-04-01T05:13:24;89942.06;;;3.17;100.00
53300;BME280;39187;48.476;8.310;2023-04-01T05:15:50;89955.47;;;2.99;100.00
53300;BME280;39187;48.476;8.310;2023-04-01T05:18:15;89942.72;;;2.98;100.00
53300;BME280;39187;48.476;8.310;2023-04-01T05:20:53;89950.16;;;3.03;100.00
53300;BME280;39187;48.476;8.310;2023-04-01T05:23:20;89946.31;;;3.07;100.00
53300;BME280;39187;48.476;8.310;2023-04-01T05:25:49;89952.44;;;3.01;100.00
53300;BME280;39187;48.476;8.310;2023-04-01T05:28:15;89945.75;;;2.96;100.00
53300;BME280;39187;48.476;8.310;2023-04-01T05:30:42;89931.84;;;2.96;100.00
53300;BME280;39187;48.476;8.310;2023-04-01T05:33:08;89944.56;;;3.01;100.00
53300;BME280;39187;48.476;8.310;2023-04-01T05:35:34;89939.06;;;2.92;100.00
53300;BME280;39187;48.476;8.310;2023-04-01T05:38:01;89932.59;;;2.96;100.00
53300;BME280;39187;48.476;8.310;2023-04-01T05:40:27;89924.22;;;3.05;100.00
53300;BME280;39187;48.476;8.310;2023-04-01T05:42:53;89936.78;;;2.94;100.00
53300;BME280;39187;48.476;8.310;2023-04-01T05:45:19;89931.56;;;2.90;100.00
53300;BME280;39187;48.476;8.310;2023-04-01T05:47:44;89934.69;;;3.08;100.00
53300;BME280;39187;48.476;8.310;2023-04-01T05:50:10;89930.78;;;2.93;100.00
53300;BME280;39187;48.476;8.310;2023-04-01T05:52:37;89937.75;;;3.03;100.00
53300;BME280;39187;48.476;8.310;2023-04-01T05:55:03;89937.25;;;2.85;100.00
53300;BME280;39187;48.476;8.310;2023-04-01T05:57:29;89935.78;;;2.84;100.00
53300;BME280;39187;48.476;8.310;2023-04-01T05:59:55;89929.28;;;2.92;100.00
53300;BME280;39187;48.476;8.310;2023-04-01T06:02:21;89905.84;;;2.78;100.00
53300;BME280;39187;48.476;8.310;2023-04-01T06:04:47;89931.56;;;2.90;100.00
53300;BME280;39187;48.476;8.310;2023-04-01T06:07:17;89922.25;;;2.86;100.00
53300;BME280;39187;48.476;8.310;2023-04-01T06:09:44;89910.94;;;2.89;100.00
53300;BME280;39187;48.476;8.310;2023-04-01T06:14:51;89910.63;;;2.83;100.00
53300;BME280;39187;48.476;8.310;2023-04-01T06:20:22;89915.59;;;2.77;100.00
53300;BME280;39187;48.476;8.310;2023-04-01T06:23:14;89897.56;;;2.79;100.00
53300;BME280;39187;48.476;8.310;2023-04-01T06:31:15;89909.56;;;2.80;100.00
53300;BME280;39187;48.476;8.310;2023-04-01T06:34:08;89924.91;;;2.82;100.00
53300;BME280;39187;48.476;8.310;2023-04-01T06:42:46;89897.75;;;2.92;100.00
53300;BME280;39187;48.476;8.310;2023-04-01T06:49:10;89906.38;;;2.93;100.00
53300;BME280;39187;48.476;8.310;2023-04-01T06:54:03;89908.25;;;2.92;100.00
53300;BME280;39187;48.476;8.310;2023-04-01T06:56:30;89918.47;;;2.87;100.00
53300;BME280;39187;48.476;8.310;2023-04-01T06:59:04;89914.66;;;2.91;100.00
53300;BME280;39187;48.476;8.310;2023-04-01T07:01:41;89903.75;;;2.93;100.00
53300;BME280;39187;48.476;8.310;2023-04-01T07:04:27;89908.63;;;2.94;100.00
53300;BME280;39187;48.476;8.310;2023-04-01T07:07:05;89902.09;;;3.02;100.00
53300;BME280;39187;48.476;8.310;2023-04-01T07:09:41;89891.66;;;2.99;100.00
53300;BME280;39187;48.476;8.310;2023-04-01T07:15:15;89903.94;;;3.05;100.00
53300;BME280;39187;48.476;8.310;2023-04-01T07:17:43;89915.31;;;2.99;100.00
53300;BME280;39187;48.476;8.310;2023-04-01T07:20:30;89916.56;;;3.14;100.00
53300;BME280;39187;48.476;8.310;2023-04-01T07:23:03;89923.31;;;3.15;100.00
53300;BME280;39187;48.476;8.310;2023-04-01T07:25:38;89916.19;;;3.15;100.00
53300;BME280;39187;48.476;8.310;2023-04-01T07:28:10;89909.59;;;3.27;100.00
53300;BME280;39187;48.476;8.310;2023-04-01T07:33:44;89916.63;;;3.10;100.00
53300;BME280;39187;48.476;8.310;2023-04-01T07:36:27;89911.94;;;3.21;100.00
53300;BME280;39187;48.476;8.310;2023-04-01T07:39:09;89918.13;;;3.11;100.00
53300;BME280;39187;48.476;8.310;2023-04-01T07:42:19;89924.91;;;3.09;100.00
53300;BME280;39187;48.476;8.310;2023-04-01T07:47:34;89928.28;;;3.09;100.00
53300;BME280;39187;48.476;8.310;2023-04-01T07:55:26;89939.38;;;3.20;100.00
53300;BME280;39187;48.476;8.310;2023-04-01T08:06:49;89953.34;;;3.17;100.00
53300;BME280;39187;48.476;8.310;2023-04-01T08:15:16;89972.09;;;3.43;100.00
53300;BME280;39187;48.476;8.310;2023-04-01T08:20:59;89971.28;;;3.22;100.00
53300;BME280;39187;48.476;8.310;2023-04-01T08:23:31;89968.53;;;3.30;100.00
53300;BME280;39187;48.476;8.310;2023-04-01T08:26:04;89969.97;;;3.34;100.00
53300;BME280;39187;48.476;8.310;2023-04-01T08:34:04;89980.94;;;3.29;100.00
53300;BME280;39187;48.476;8.310;2023-04-01T08:36:39;89985.06;;;3.30;100.00
53300;BME280;39187;48.476;8.310;2023-04-01T08:39:13;89987.78;;;3.23;100.00
53300;BME280;39187;48.476;8.310;2023-04-01T08:44:37;89987.31;;;3.32;100.00
53300;BME280;39187;48.476;8.310;2023-04-01T08:51:10;90000.69;;;3.41;100.00
53300;BME280;39187;48.476;8.310;2023-04-01T08:58:54;89999.66;;;3.35;100.00
53300;BME280;39187;48.476;8.310;2023-04-01T09:04:25;90006.94;;;3.23;100.00
53300;BME280;39187;48.476;8.310;2023-04-01T09:18:27;90016.47;;;3.41;100.00
53300;BME280;39187;48.476;8.310;2023-04-01T09:24:17;90010.59;;;3.56;100.00
53300;BME280;39187;48.476;8.310;2023-04-01T09:27:08;90013.25;;;3.56;100.00
53300;BME280;39187;48.476;8.310;2023-04-01T09:32:26;90019.50;;;3.39;100.00
53300;BME280;39187;48.476;8.310;2023-04-01T09:40:42;90030.72;;;3.43;100.00
53300;BME280;39187;48.476;8.310;2023-04-01T09:44:02;90020.41;;;3.52;100.00
53300;BME280;39187;48.476;8.310;2023-04-01T09:47:01;90017.00;;;3.55;100.00
53300;BME280;39187;48.476;8.310;2023-04-01T09:49:48;90028.44;;;3.45;100.00
53300;BME280;39187;48.476;8.310;2023-04-01T09:52:49;90033.34;;;3.43;100.00
53300;BME280;39187;48.476;8.310;2023-04-01T10:12:35;90038.78;;;3.56;100.00
53300;BME280;39187;48.476;8.310;2023-04-01T10:29:27;90041.72;;;3.61;100.00
53300;BME280;39187;48.476;8.310;2023-04-01T10:37:50;90050.53;;;3.51;100.00
53300;BME280;39187;48.476;8.310;2023-04-01T10:40:35;90052.63;;;3.60;100.00
53300;BME280;39187;48.476;8.310;2023-04-01T10:43:22;90054.66;;;3.76;100.00
53300;BME280;39187;48.476;8.310;2023-04-01T10:46:21;90050.16;;;3.49;100.00
53300;BME280;39187;48.476;8.310;2023-04-01T10:57:55;90049.91;;;3.67;100.00
53300;BME280;39187;48.476;8.310;2023-04-01T11:00:57;90050.72;;;3.64;100.00
53300;BME280;39187;48.476;8.310;2023-04-01T11:13:27;90055.25;;;3.60;100.00
53300;BME280;39187;48.476;8.310;2023-04-01T11:29:49;90076.66;;;3.35;100.00
53300;BME280;39187;48.476;8.310;2023-04-01T11:32:34;90067.16;;;3.45;100.00
53300;BME280;39187;48.476;8.310;2023-04-01T11:40:54;90064.66;;;3.61;100.00
53300;BME280;39187;48.476;8.310;2023-04-01T11:49:17;90076.72;;;3.32;100.00
53300;BME280;39187;48.476;8.310;2023-04-01T11:55:11;90070.38;;;3.56;100.00
53300;BME280;39187;48.476;8.310;2023-04-01T11:57:55;90062.66;;;3.42;100.00
53300;BME280;39187;48.476;8.310;2023-04-01T12:06:14;90081.13;;;3.38;100.00
53300;BME280;39187;48.476;8.310;2023-04-01T12:11:20;90077.97;;;3.50;100.00
53300;BME280;39187;48.476;8.310;2023-04-01T12:13:55;90076.97;;;3.68;100.00
53300;BME280;39187;48.476;8.310;2023-04-01T12:21:38;90090.56;;;3.62;100.00
53300;BME280;39187;48.476;8.310;2023-04-01T12:24:33;90070.38;;;3.56;100.00
53300;BME280;39187;48.476;8.310;2023-04-01T12:27:25;90083.22;;;3.77;100.00
53300;BME280;39187;48.476;8.310;2023-04-01T12:30:02;90083.31;;;3.70;100.00
53300;BME280;39187;48.476;8.310;2023-04-01T12:32:47;90083.63;;;3.76;100.00
53300;BME280;39187;48.476;8.310;2023-04-01T12:35:36;90085.84;;;3.77;100.00
53300;BME280;39187;48.476;8.310;2023-04-01T12:52:00;90086.28;;;3.72;100.00
53300;BME280;39187;48.476;8.310;2023-04-01T12:55:17;90093.03;;;3.73;100.00
53300;BME280;39187;48.476;8.310;2023-04-01T13:02:50;90085.72;;;3.84;100.00
53300;BME280;39187;48.476;8.310;2023-04-01T13:19:03;90105.69;;;3.82;100.00
53300;BME280;39187;48.476;8.310;2023-04-01T13:21:45;90098.44;;;3.89;100.00
53300;BME280;39187;48.476;8.310;2023-04-01T13:24:21;90087.88;;;3.93;100.00
53300;BME280;39187;48.476;8.310;2023-04-01T13:26:59;90096.25;;;3.84;100.00
53300;BME280;39187;48.476;8.310;2023-04-01T13:29:59;90103.16;;;4.01;100.00
53300;BME280;39187;48.476;8.310;2023-04-01T13:43:18;90100.72;;;3.87;100.00
53300;BME280;39187;48.476;8.310;2023-04-01T13:57:19;90125.28;;;4.04;100.00
53300;BME280;39187;48.476;8.310;2023-04-01T14:09:10;90135.63;;;4.18;100.00
53300;BME280;39187;48.476;8.310;2023-04-01T14:20:17;90135.34;;;4.36;100.00
53300;BME280;39187;48.476;8.310;2023-04-01T14:47:28;90141.13;;;4.51;100.00
53300;BME280;39187;48.476;8.310;2023-04-01T14:50:09;90125.63;;;4.33;100.00
53300;BME280;39187;48.476;8.310;2023-04-01T14:52:41;90131.28;;;4.31;100.00
53300;BME280;39187;48.476;8.310;2023-04-01T14:55:31;90135.94;;;4.47;100.00
53300;BME280;39187;48.476;8.310;2023-04-01T14:58:21;90133.06;;;4.38;100.00
53300;BME280;39187;48.476;8.310;2023-04-01T15:01:09;90148.13;;;4.37;100.00
53300;BME280;39187;48.476;8.310;2023-04-01T15:06:42;90126.53;;;4.46;100.00
53300;BME280;39187;48.476;8.310;2023-04-01T15:12:07;90132.44;;;4.54;100.00
53300;BME280;39187;48.476;8.310;2023-04-01T15:15:16;90125.72;;;4.49;100.00
53300;BME280;39187;48.476;8.310;2023-04-01T15:17:58;90129.38;;;4.55;100.00
53300;BME280;39187;48.476;8.310;2023-04-01T15:29:24;90112.66;;;4.65;100.00
53300;BME280;39187;48.476;8.310;2023-04-01T15:39:48;90116.94;;;4.56;100.00
53300;BME280;39187;48.476;8.310;2023-04-01T15:42:28;90124.75;;;4.63;100.00
53300;BME280;39187;48.476;8.310;2023-04-01T15:53:12;90136.22;;;4.96;100.00
53300;BME280;39187;48.476;8.310;2023-04-01T15:56:42;90138.03;;;4.79;100.00
53300;BME280;39187;48.476;8.310;2023-04-01T15:59:16;90132.84;;;4.95;100.00
53300;BME280;39187;48.476;8.310;2023-04-01T16:12:42;90119.91;;;4.81;100.00
53300;BME280;39187;48.476;8.310;2023-04-01T16:18:21;90117.50;;;4.90;100.00
53300;BME280;39187;48.476;8.310;2023-04-01T16:20:57;90126.66;;;4.82;100.00
53300;BME280;39187;48.476;8.310;2023-04-01T16:23:43;90116.06;;;4.86;100.00
53300;BME280;39187;48.476;8.310;2023-04-01T16:26:16;90128.69;;;4.94;100.00
53300;BME280;39187;48.476;8.310;2023-04-01T16:29:19;90130.41;;;4.84;100.00
53300;BME280;39187;48.476;8.310;2023-04-01T16:31:51;90128.50;;;4.85;100.00
53300;BME280;39187;48.476;8.310;2023-04-01T16:34:47;90127.53;;;4.75;100.00
53300;BME280;39187;48.476;8.310;2023-04-01T16:37:21;90124.78;;;4.82;100.00
53300;BME280;39187;48.476;8.310;2023-04-01T16:40:16;90123.22;;;4.85;100.00
53300;BME280;39187;48.476;8.310;2023-04-01T16:43:06;90128.75;;;4.71;100.00
53300;BME280;39187;48.476;8.310;2023-04-01T16:45:51;90127.22;;;4.93;100.00
53300;BME280;39187;48.476;8.310;2023-04-01T16:48:23;90144.53;;;4.94;100.00
53300;BME280;39187;48.476;8.310;2023-04-01T16:50:59;90130.72;;;4.87;100.00
53300;BME280;39187;48.476;8.310;2023-04-01T16:53:45;90122.84;;;4.63;100.00
53300;BME280;39187;48.476;8.310;2023-04-01T16:56:25;90134.97;;;4.80;100.00
53300;BME280;39187;48.476;8.310;2023-04-01T16:59:04;90148.84;;;4.84;100.00
53300;BME280;39187;48.476;8.310;2023-04-01T17:01:49;90149.66;;;4.58;100.00
53300;BME280;39187;48.476;8.310;2023-04-01T17:10:44;90157.34;;;4.49;100.00
53300;BME280;39187;48.476;8.310;2023-04-01T17:15:58;90166.63;;;4.57;100.00
53300;BME280;39187;48.476;8.310;2023-04-01T17:19:08;90174.69;;;4.70;100.00
53300;BME280;39187;48.476;8.310;2023-04-01T17:30:03;90200.16;;;4.80;100.00
53300;BME280;39187;48.476;8.310;2023-04-01T17:35:59;90193.19;;;4.43;100.00
53300;BME280;39187;48.476;8.310;2023-04-01T17:39:27;90220.19;;;4.24;100.00
53300;BME280;39187;48.476;8.310;2023-04-01T17:41:41;90216.22;;;4.62;100.00
53300;BME280;39187;48.476;8.310;2023-04-01T17:44:37;90222.13;;;4.70;100.00
53300;BME280;39187;48.476;8.310;2023-04-01T17:52:45;90234.16;;;4.71;100.00
53300;BME280;39187;48.476;8.310;2023-04-01T17:58:05;90227.22;;;4.80;100.00
53300;BME280;39187;48.476;8.310;2023-04-01T18:03:55;90249.50;;;4.26;100.00
53300;BME280;39187;48.476;8.310;2023-04-01T18:06:33;90262.09;;;4.41;100.00
53300;BME280;39187;48.476;8.310;2023-04-01T18:15:37;90268.59;;;4.60;100.00
53300;BME280;39187;48.476;8.310;2023-04-01T18:24:02;90266.19;;;4.42;100.00
53300;BME280;39187;48.476;8.310;2023-04-01T18:26:34;90266.28;;;4.35;100.00
53300;BME280;39187;48.476;8.310;2023-04-01T18:29:26;90271.66;;;4.55;100.00
53300;BME280;39187;48.476;8.310;2023-04-01T18:37:27;90269.38;;;4.30;100.00
53300;BME280;39187;48.476;8.310;2023-04-01T18:42:33;90267.56;;;4.24;100.00
53300;BME280;39187;48.476;8.310;2023-04-01T18:45:21;90278.03;;;4.31;100.00
53300;BME280;39187;48.476;8.310;2023-04-01T18:48:03;90279.47;;;4.35;100.00
53300;BME280;39187;48.476;8.310;2023-04-01T18:55:53;90296.88;;;4.56;100.00
53300;BME280;39187;48.476;8.310;2023-04-01T19:01:24;90302.03;;;4.36;100.00
53300;BME280;39187;48.476;8.310;2023-04-01T19:04:16;90294.84;;;4.40;100.00
53300;BME280;39187;48.476;8.310;2023-04-01T19:06:51;90304.47;;;4.51;100.00
53300;BME280;39187;48.476;8.310;2023-04-01T19:09:45;90298.03;;;4.25;100.00
53300;BME280;39187;48.476;8.310;2023-04-01T19:15:25;90295.88;;;4.47;100.00
53300;BME280;39187;48.476;8.310;2023-04-01T19:23:39;90297.28;;;4.24;100.00
53300;BME280;39187;48.476;8.310;2023-04-01T19:26:22;90300.34;;;4.50;100.00
53300;BME280;39187;48.476;8.310;2023-04-01T19:28:55;90303.03;;;4.46;100.00
53300;BME280;39187;48.476;8.310;2023-04-01T19:34:30;90297.06;;;4.42;100.00
53300;BME280;39187;48.476;8.310;2023-04-01T19:37:20;90303.72;;;4.50;100.00
53300;BME280;39187;48.476;8.310;2023-04-01T19:43:00;90301.56;;;4.15;100.00
53300;BME280;39187;48.476;8.310;2023-04-01T19:45:41;90300.69;;;4.25;100.00
53300;BME280;39187;48.476;8.310;2023-04-01T19:50:39;90298.94;;;4.15;100.00
53300;BME280;39187;48.476;8.310;2023-04-01T19:53:29;90297.66;;;3.96;100.00
53300;BME280;39187;48.476;8.310;2023-04-01T19:56:31;90296.75;;;4.10;100.00
53300;BME280;39187;48.476;8.310;2023-04-01T19:59:14;90293.88;;;3.97;100.00
53300;BME280;39187;48.476;8.310;2023-04-01T20:04:53;90310.00;;;4.33;100.00
53300;BME280;39187;48.476;8.310;2023-04-01T20:07:37;90320.97;;;4.28;100.00
53300;BME280;39187;48.476;8.310;2023-04-01T20:10:15;90321.50;;;4.16;100.00
53300;BME280;39187;48.476;8.310;2023-04-01T20:13:03;90354.53;;;3.86;100.00
53300;BME280;39187;48.476;8.310;2023-04-01T20:18:05;90361.44;;;3.73;100.00
53300;BME280;39187;48.476;8.310;2023-04-01T20:20:37;90359.28;;;3.65;100.00
53300;BME280;39187;48.476;8.310;2023-04-01T20:25:43;90373.06;;;3.76;100.00
53300;BME280;39187;48.476;8.310;2023-04-01T20:31:38;90366.50;;;3.53;100.00
53300;BME280;39187;48.476;8.310;2023-04-01T20:53:58;90394.03;;;3.42;100.00
53300;BME280;39187;48.476;8.310;2023-04-01T21:07:16;90402.03;;;3.72;100.00
53300;BME280;39187;48.476;8.310;2023-04-01T21:10:37;90397.50;;;3.76;100.00
53300;BME280;39187;48.476;8.310;2023-04-01T21:12:53;90394.69;;;3.53;100.00
53300;BME280;39187;48.476;8.310;2023-04-01T21:15:30;90396.19;;;3.54;100.00
53300;BME280;39187;48.476;8.310;2023-04-01T21:18:22;90399.16;;;3.59;100.00
53300;BME280;39187;48.476;8.310;2023-04-01T21:26:23;90397.91;;;3.75;100.00
53300;BME280;39187;48.476;8.310;2023-04-01T21:29:21;90396.56;;;3.56;100.00
53300;BME280;39187;48.476;8.310;2023-04-01T21:32:05;90394.28;;;3.58;100.00
53300;BME280;39187;48.476;8.310;2023-04-01T21:34:55;90393.75;;;3.74;100.00
53300;BME280;39187;48.476;8.310;2023-04-01T21:51:22;90410.38;;;3.67;100.00
53300;BME280;39187;48.476;8.310;2023-04-01T22:02:58;90406.84;;;3.81;100.00
53300;BME280;39187;48.476;8.310;2023-04-01T22:05:45;90405.16;;;3.60;100.00
53300;BME280;39187;48.476;8.310;2023-04-01T22:11:30;90409.56;;;3.74;100.00